createdAt,value
2022-08-29T00:02:03.937Z,94.60
2022-08-29T00:07:05.796Z,94.70
2022-08-29T00:12:08.154Z,94.80
2022-08-29T00:17:21.078Z,95.00
2022-08-29T00:22:23.631Z,95.10
2022-08-29T00:27:28.007Z,95.20
2022-08-29T00:32:35.104Z,95.30
2022-08-29T00:37:37.310Z,95.40
2022-08-29T00:42:39.895Z,95.50
2022-08-29T00:47:49.299Z,95.60
2022-08-29T00:52:53.021Z,95.70
2022-08-29T01:03:21.547Z,95.90
2022-08-29T01:08:23.396Z,96.00
2022-08-29T01:13:32.543Z,96.20
2022-08-29T01:18:36.933Z,96.30
2022-08-29T01:23:44.187Z,96.50
2022-08-29T01:28:51.410Z,96.60
2022-08-29T01:33:58.464Z,96.80
2022-08-29T01:39:01.117Z,97.00
2022-08-29T01:44:10.032Z,97.10
2022-08-29T01:49:13.346Z,97.20
2022-08-29T01:54:15.932Z,97.30
2022-08-29T01:59:21.001Z,97.50
2022-08-29T02:04:23.329Z,97.70
2022-08-29T02:09:25.852Z,97.80
2022-08-29T02:14:28.054Z,97.90
2022-08-29T02:19:29.811Z,98.10
2022-08-29T02:24:31.638Z,98.30
2022-08-29T02:29:37.696Z,98.50
2022-08-29T02:34:44.716Z,98.70
2022-08-29T02:39:49.613Z,99.00
2022-08-29T02:44:51.377Z,99.20
2022-08-29T02:49:53.118Z,99.50
2022-08-29T02:54:54.870Z,99.70
2022-08-29T02:59:56.984Z,99.90
2022-08-29T03:05:00.014Z,99.90
2022-08-29T03:10:02.168Z,99.90
2022-08-29T03:15:05.532Z,99.90
2022-08-29T03:20:08.661Z,99.90
2022-08-29T03:25:12.323Z,99.90
2022-08-29T03:30:15.913Z,99.90
2022-08-29T03:35:19.588Z,99.90
2022-08-29T03:40:22.082Z,99.90
2022-08-29T03:45:25.504Z,99.90
2022-08-29T03:50:27.329Z,99.90
2022-08-29T03:55:29.608Z,99.90
2022-08-29T04:00:31.559Z,99.90
2022-08-29T04:05:33.338Z,99.90
2022-08-29T04:10:38.157Z,99.90
2022-08-29T04:15:41.778Z,99.90
2022-08-29T04:20:44.969Z,99.90
2022-08-29T04:25:46.931Z,99.90
2022-08-29T04:30:51.787Z,99.90
2022-08-29T04:35:54.777Z,99.90
2022-08-29T04:40:56.598Z,99.90
2022-08-29T04:45:58.777Z,99.90
2022-08-29T04:51:01.837Z,99.90
2022-08-29T04:56:07.505Z,99.90
2022-08-29T05:01:18.117Z,99.90
2022-08-29T05:06:22.539Z,99.90
2022-08-29T05:11:25.172Z,99.90
2022-08-29T05:16:27.372Z,99.90
2022-08-29T05:21:35.854Z,99.90
2022-08-29T05:26:41.879Z,99.90
2022-08-29T05:31:44.529Z,99.90
2022-08-29T05:36:47.595Z,99.90
2022-08-29T05:41:49.389Z,99.90
2022-08-29T05:46:51.223Z,99.90
2022-08-29T05:51:57.002Z,99.90
2022-08-29T05:56:58.802Z,99.90
2022-08-29T06:02:01.517Z,99.90
2022-08-29T06:07:04.293Z,99.90
2022-08-29T06:12:10.476Z,99.90
2022-08-29T06:17:12.506Z,99.90
2022-08-29T06:22:14.317Z,99.90
2022-08-29T06:27:16.602Z,99.90
2022-08-29T06:32:18.581Z,99.90
2022-08-29T06:37:21.706Z,99.90
2022-08-29T06:42:25.150Z,99.90
2022-08-29T06:47:31.093Z,99.90
2022-08-29T06:52:33.097Z,99.90
2022-08-29T06:57:42.639Z,99.90
2022-08-29T07:02:52.543Z,99.90
2022-08-29T07:08:01.203Z,99.90
2022-08-29T07:13:04.831Z,99.90
2022-08-29T07:18:08.277Z,99.90
2022-08-29T07:23:12.781Z,99.90
2022-08-29T07:28:14.994Z,99.90
2022-08-29T07:33:17.614Z,99.90
2022-08-29T07:38:20.498Z,99.90
2022-08-29T07:43:27.386Z,99.90
2022-08-29T07:48:30.783Z,99.90
2022-08-29T07:53:35.307Z,99.90
2022-08-29T07:58:37.413Z,99.90
2022-08-29T08:03:39.719Z,99.90
2022-08-29T08:08:42.115Z,99.90
2022-08-29T08:13:45.598Z,99.90
2022-08-29T08:18:49.644Z,99.70
2022-08-29T08:23:52.472Z,98.80
2022-08-29T08:28:55.265Z,98.50
2022-08-29T08:33:57.726Z,97.90
2022-08-29T08:39:00.308Z,97.90
2022-08-29T08:44:35.207Z,97.70
2022-08-29T08:49:40.306Z,96.70
2022-08-29T08:54:53.258Z,97.40
2022-08-29T09:00:01.701Z,96.90
2022-08-29T09:05:07.658Z,96.60
2022-08-29T09:10:58.934Z,96.90
2022-08-29T09:16:05.203Z,96.70
2022-08-29T09:21:39.599Z,96.40
2022-08-29T09:26:36.236Z,96.50
2022-08-29T09:31:38.266Z,96.10
2022-08-29T09:36:48.437Z,96.20
2022-08-29T09:41:57.443Z,95.30
2022-08-29T09:47:19.234Z,95.00
2022-08-29T09:52:25.039Z,94.00
2022-08-29T09:57:28.693Z,92.70
2022-08-29T10:02:38.744Z,92.70
2022-08-29T10:07:52.297Z,91.70
2022-08-29T10:13:18.606Z,90.40
2022-08-29T10:18:37.477Z,90.60
2022-08-29T10:24:05.998Z,90.30
2022-08-29T10:29:21.526Z,89.90
2022-08-29T10:34:39.150Z,88.40
2022-08-29T10:39:52.727Z,88.60
2022-08-29T10:45:15.454Z,87.40
2022-08-29T10:50:44.569Z,86.00
2022-08-29T10:56:06.829Z,84.60
2022-08-29T11:01:12.062Z,85.10
2022-08-29T11:06:28.867Z,83.80
2022-08-29T11:11:33.331Z,82.70
2022-08-29T11:16:43.466Z,81.40
2022-08-29T11:22:23.748Z,82.10
2022-08-29T11:27:54.720Z,81.10
2022-08-29T11:33:03.441Z,80.80
2022-08-29T11:38:23.713Z,78.80
2022-08-29T11:43:35.343Z,80.40
2022-08-29T11:48:46.398Z,79.60
2022-08-29T11:53:48.626Z,79.40
2022-08-29T11:58:56.315Z,79.00
2022-08-29T12:03:59.150Z,78.00
2022-08-29T12:09:17.893Z,77.00
2022-08-29T12:14:38.036Z,77.90
2022-08-29T12:19:56.362Z,75.80
2022-08-29T12:24:58.157Z,77.50
2022-08-29T12:30:00.154Z,76.00
2022-08-29T12:35:26.583Z,76.40
2022-08-29T12:40:35.030Z,75.90
2022-08-29T12:45:42.127Z,73.20
2022-08-29T12:50:48.093Z,74.80
2022-08-29T12:56:00.095Z,72.50
2022-08-29T13:01:03.256Z,72.40
2022-08-29T13:06:13.963Z,71.10
2022-08-29T13:11:20.834Z,72.30
2022-08-29T13:16:26.711Z,70.50
2022-08-29T13:21:32.296Z,70.50
2022-08-29T13:26:34.757Z,69.00
2022-08-29T13:31:37.973Z,69.30
2022-08-29T13:37:16.332Z,68.30
2022-08-29T13:42:27.892Z,67.90
2022-08-29T13:47:33.030Z,66.50
2022-08-29T13:52:34.792Z,67.00
2022-08-29T13:57:40.466Z,66.00
2022-08-29T14:02:45.229Z,65.50
2022-08-29T14:07:47.534Z,64.80
2022-08-29T14:12:49.371Z,64.30
2022-08-29T14:17:51.168Z,64.30
2022-08-29T14:22:53.039Z,63.80
2022-08-29T14:27:55.406Z,62.70
2022-08-29T14:32:57.228Z,62.60
2022-08-29T14:38:01.420Z,62.30
2022-08-29T14:43:04.008Z,61.60
2022-08-29T14:48:06.556Z,61.30
2022-08-29T14:53:08.691Z,60.70
2022-08-29T14:58:10.458Z,59.70
2022-08-29T15:03:12.420Z,59.40
2022-08-29T15:08:15.855Z,59.10
2022-08-29T15:13:17.859Z,59.80
2022-08-29T15:18:59.554Z,59.60
2022-08-29T15:23:43.033Z,59.40
2022-08-29T15:28:45.196Z,59.80
2022-08-29T15:33:46.997Z,59.20
2022-08-29T15:38:48.890Z,59.60
2022-08-29T15:43:51.386Z,60.60
2022-08-29T15:48:53.385Z,60.90
2022-08-29T15:53:55.234Z,60.50
2022-08-29T15:58:57.026Z,60.90
2022-08-29T16:03:58.785Z,61.10
2022-08-29T16:09:01.161Z,61.70
2022-08-29T16:14:41.112Z,61.90
2022-08-29T16:19:26.026Z,61.80
2022-08-29T16:24:30.429Z,61.50
2022-08-29T16:29:34.041Z,61.40
2022-08-29T16:34:35.845Z,61.50
2022-08-29T16:39:37.739Z,61.40
2022-08-29T16:44:40.228Z,62.90
2022-08-29T16:49:42.194Z,62.20
2022-08-29T16:54:44.010Z,63.50
2022-08-29T16:59:45.843Z,62.60
2022-08-29T17:04:48.921Z,62.60
2022-08-29T17:09:50.700Z,63.50
2022-08-29T17:14:54.984Z,63.30
2022-08-29T17:19:56.930Z,63.20
2022-08-29T17:24:59.312Z,63.00
2022-08-29T17:30:03.495Z,63.30
2022-08-29T17:35:06.889Z,64.00
2022-08-29T17:40:10.000Z,64.30
2022-08-29T17:45:12.552Z,64.80
2022-08-29T17:50:14.377Z,65.00
2022-08-29T17:55:16.335Z,66.10
2022-08-29T18:00:19.263Z,66.30
2022-08-29T18:05:21.091Z,67.10
2022-08-29T18:10:23.833Z,67.20
2022-08-29T18:15:25.848Z,67.60
2022-08-29T18:20:27.670Z,68.50
2022-08-29T18:25:29.896Z,68.90
2022-08-29T18:30:31.690Z,70.70
2022-08-29T18:35:33.876Z,70.40
2022-08-29T18:40:39.456Z,71.10
2022-08-29T18:45:42.901Z,71.00
2022-08-29T18:50:45.513Z,71.80
2022-08-29T18:55:51.204Z,71.40
2022-08-29T19:00:55.367Z,72.50
2022-08-29T19:05:57.115Z,72.70
2022-08-29T19:11:00.218Z,73.80
2022-08-29T19:16:04.863Z,74.20
2022-08-29T19:21:07.087Z,74.60
2022-08-29T19:26:13.333Z,74.80
2022-08-29T19:31:16.382Z,75.40
2022-08-29T19:36:20.067Z,75.50
2022-08-29T19:41:22.018Z,76.10
2022-08-29T19:46:24.029Z,76.70
2022-08-29T19:51:27.973Z,77.10
2022-08-29T19:56:29.843Z,77.20
2022-08-29T20:01:31.658Z,77.20
2022-08-29T20:06:34.576Z,77.40
2022-08-29T20:11:40.049Z,77.80
2022-08-29T20:16:45.721Z,78.00
2022-08-29T20:21:49.055Z,78.30
2022-08-29T20:26:50.733Z,78.70
2022-08-29T20:31:55.233Z,78.80
2022-08-29T20:37:08.859Z,79.20
2022-08-29T20:42:10.511Z,79.50
2022-08-29T20:47:17.950Z,79.60
2022-08-29T20:52:20.607Z,79.60
2022-08-29T20:57:22.538Z,79.80
2022-08-29T21:02:24.179Z,79.80
2022-08-29T21:07:26.488Z,80.50
2022-08-29T21:12:28.643Z,80.70
2022-08-29T21:17:30.260Z,80.70
2022-08-29T21:22:31.892Z,80.50
2022-08-29T21:27:33.569Z,81.10
2022-08-29T21:32:35.198Z,81.30
2022-08-29T21:37:36.972Z,81.50
2022-08-29T21:42:39.819Z,81.90
2022-08-29T21:47:41.797Z,82.10
2022-08-29T21:52:43.437Z,81.80
2022-08-29T21:57:52.250Z,82.00
2022-08-29T22:02:54.523Z,82.50
2022-08-29T22:07:56.793Z,81.90
2022-08-29T22:13:00.649Z,81.80
2022-08-29T22:18:03.115Z,82.20
2022-08-29T22:23:05.914Z,82.10
2022-08-29T22:28:10.062Z,82.50
2022-08-29T22:33:13.718Z,83.20
2022-08-29T22:38:18.385Z,84.60
2022-08-29T22:43:20.063Z,85.00
2022-08-29T22:48:21.733Z,85.80
2022-08-29T22:53:23.890Z,86.20
2022-08-29T22:58:25.789Z,87.00
2022-08-29T23:03:27.432Z,88.00
2022-08-29T23:08:29.061Z,88.30
2022-08-29T23:13:31.159Z,88.40
2022-08-29T23:18:33.368Z,88.60
2022-08-29T23:23:35.339Z,89.30
2022-08-29T23:28:37.099Z,90.10
2022-08-29T23:33:38.757Z,90.20
2022-08-29T23:38:40.440Z,90.80
2022-08-29T23:43:42.888Z,90.80
2022-08-29T23:48:44.844Z,91.30
2022-08-29T23:53:47.387Z,91.20
2022-08-29T23:58:49.219Z,91.30
